Time,TemperatureF,DewpointF,PressureIn,WindDirection,WindDirectionDegrees,WindSpeedMPH,WindSpeedGustMPH,Humidity,HourlyPrecipIn,Conditions,Clouds,dailyrainin,SoftwareType,DateUTC
2013-04-15 00:02:00,43.0,20.0,29.88,SW,217,1.0,2.0,39,0.00,,,0.00,,2013-04-15 07:02:00,
2013-04-15 00:42:00,42.0,19.0,29.87,South,174,0.0,0.0,39,0.00,,,0.00,,2013-04-15 07:42:00,
2013-04-15 00:52:00,43.0,16.0,29.87,SSW,202,1.0,6.0,33,0.00,,,0.00,,2013-04-15 07:52:00,
2013-04-15 01:02:00,43.0,14.0,29.87,SSW,202,0.0,0.0,31,0.00,,,0.00,,2013-04-15 08:02:00,
2013-04-15 01:12:00,43.0,14.0,29.87,SSW,202,0.0,0.0,31,0.00,,,0.00,,2013-04-15 08:12:00,
2013-04-15 01:21:00,42.0,10.0,29.87,SSW,202,0.0,1.0,27,0.00,,,0.00,,2013-04-15 08:21:00,
2013-04-15 01:32:00,43.0,10.0,29.87,South,185,0.0,0.0,25,0.00,,,0.00,,2013-04-15 08:32:00,
2013-04-15 01:42:00,43.0,10.0,29.87,South,185,0.0,0.0,25,0.00,,,0.00,,2013-04-15 08:42:00,
2013-04-15 01:51:00,43.0,11.0,29.88,SE,145,0.0,1.0,27,0.00,,,0.00,,2013-04-15 08:51:00,
2013-04-15 02:02:00,43.0,11.0,29.87,SSW,192,0.0,0.0,27,0.00,,,0.00,,2013-04-15 09:02:00,
2013-04-15 02:12:00,43.0,11.0,29.87,SSW,192,0.0,0.0,27,0.00,,,0.00,,2013-04-15 09:12:00,
2013-04-15 02:22:00,43.0,11.0,29.87,SSW,192,0.0,0.0,27,0.00,,,0.00,,2013-04-15 09:22:00,
2013-04-15 02:32:00,43.0,11.0,29.87,SSW,192,0.0,0.0,27,0.00,,,0.00,,2013-04-15 09:32:00,
2013-04-15 02:42:00,43.0,11.0,29.87,SSW,192,0.0,0.0,27,0.00,,,0.00,,2013-04-15 09:42:00,
2013-04-15 03:02:00,41.0,9.0,29.85,NW,313,0.0,0.0,26,0.00,,,0.00,,2013-04-15 10:02:00,
2013-04-15 03:13:00,41.0,9.0,29.85,NW,313,0.0,0.0,26,0.00,,,0.00,,2013-04-15 10:13:00,
2013-04-15 03:23:00,40.0,8.0,29.85,NW,313,0.0,0.0,26,0.00,,,0.00,,2013-04-15 10:23:00,
2013-04-15 03:33:00,39.0,8.0,29.84,NW,313,0.0,0.0,27,0.00,,,0.00,,2013-04-15 10:33:00,
2013-04-15 03:42:00,39.0,8.0,29.84,NW,313,0.0,0.0,27,0.00,,,0.00,,2013-04-15 10:42:00,
2013-04-15 03:52:00,40.0,7.0,29.84,NW,313,0.0,0.0,25,0.00,,,0.00,,2013-04-15 10:52:00,
2013-04-15 04:02:00,39.0,6.0,29.84,NW,313,0.0,0.0,25,0.00,,,0.00,,2013-04-15 11:02:00,
2013-04-15 04:12:00,39.0,6.0,29.84,NW,313,0.0,0.0,25,0.00,,,0.00,,2013-04-15 11:12:00,
2013-04-15 04:22:00,39.0,6.0,29.84,NW,313,0.0,0.0,25,0.00,,,0.00,,2013-04-15 11:22:00,
2013-04-15 04:32:00,40.0,10.0,29.84,SW,219,0.0,2.0,28,0.00,,,0.00,,2013-04-15 11:32:00,
2013-04-15 04:42:00,40.0,10.0,29.84,SW,219,0.0,2.0,28,0.00,,,0.00,,2013-04-15 11:42:00,
2013-04-15 04:52:00,41.0,11.0,29.84,SW,217,1.0,7.0,29,0.00,,,0.00,,2013-04-15 11:52:00,
2013-04-15 05:03:00,43.0,14.0,29.83,SW,216,0.0,10.0,30,0.00,,,0.00,,2013-04-15 12:03:00,
2013-04-15 05:12:00,43.0,14.0,29.83,SW,216,0.0,10.0,30,0.00,,,0.00,,2013-04-15 12:12:00,
2013-04-15 05:22:00,44.0,15.0,29.83,South,175,0.0,5.0,31,0.00,,,0.00,,2013-04-15 12:22:00,
2013-04-15 05:42:00,44.0,15.0,29.83,South,182,0.0,5.0,31,0.00,,,0.00,,2013-04-15 12:42:00,
2013-04-15 05:53:00,44.0,15.0,29.83,SSW,193,0.0,6.0,31,0.00,,,0.00,,2013-04-15 12:53:00,
2013-04-15 06:02:00,44.0,15.0,29.83,SSW,212,0.0,1.0,31,0.00,,,0.00,,2013-04-15 13:02:00,
2013-04-15 06:12:00,44.0,15.0,29.83,SSW,212,0.0,1.0,31,0.00,,,0.00,,2013-04-15 13:12:00,
2013-04-15 06:22:00,43.0,14.0,29.83,South,176,4.0,11.0,31,0.00,,,0.00,,2013-04-15 13:22:00,
2013-04-15 06:32:00,43.0,13.0,29.83,South,179,5.0,11.0,29,0.00,,,0.00,,2013-04-15 13:32:00,
2013-04-15 06:42:00,43.0,13.0,29.83,South,179,5.0,11.0,29,0.00,,,0.00,,2013-04-15 13:42:00,
2013-04-15 06:52:00,42.0,10.0,29.83,SSW,209,3.0,6.0,27,0.00,,,0.00,,2013-04-15 13:52:00,
2013-04-15 07:03:00,42.0,10.0,29.84,SSW,198,3.0,8.0,27,0.00,,,0.00,,2013-04-15 14:03:00,
2013-04-15 07:12:00,42.0,10.0,29.84,SSW,198,3.0,8.0,27,0.00,,,0.00,,2013-04-15 14:12:00,
2013-04-15 07:21:00,42.0,10.0,29.84,SSW,212,2.0,8.0,26,0.00,,,0.00,,2013-04-15 14:21:00,
2013-04-15 07:32:00,44.0,10.0,29.84,SSW,209,1.0,4.0,24,0.00,,,0.00,,2013-04-15 14:32:00,
2013-04-15 07:52:00,44.0,10.0,29.84,SW,220,1.0,5.0,24,0.00,,,0.00,,2013-04-15 14:52:00,
2013-04-15 08:03:00,47.0,6.0,29.85,SW,220,1.0,7.0,18,0.00,,,0.00,,2013-04-15 15:03:00,
2013-04-15 08:12:00,47.0,6.0,29.85,SW,220,1.0,7.0,18,0.00,,,0.00,,2013-04-15 15:12:00,
2013-04-15 08:22:00,47.0,6.0,29.85,SSW,208,0.0,7.0,18,0.00,,,0.00,,2013-04-15 15:22:00,
2013-04-15 08:34:00,48.0,4.0,29.85,SW,226,2.0,6.0,16,0.00,,,0.00,,2013-04-15 15:34:00,
2013-04-15 08:43:00,48.0,4.0,29.85,SW,226,2.0,6.0,16,0.00,,,0.00,,2013-04-15 15:43:00,
2013-04-15 08:53:00,49.0,5.0,29.85,SSW,208,1.0,6.0,16,0.00,,,0.00,,2013-04-15 15:53:00,
2013-04-15 09:03:00,51.0,2.0,29.85,WSW,253,2.0,7.0,13,0.00,,,0.00,,2013-04-15 16:03:00,
2013-04-15 09:12:00,51.0,2.0,29.85,WSW,253,2.0,7.0,13,0.00,,,0.00,,2013-04-15 16:12:00,
2013-04-15 09:23:00,51.0,2.0,29.85,West,264,0.0,9.0,13,0.00,,,0.00,,2013-04-15 16:23:00,
2013-04-15 09:32:00,52.0,3.0,29.85,SSW,206,2.0,11.0,13,0.00,,,0.00,,2013-04-15 16:32:00,
2013-04-15 09:43:00,52.0,3.0,29.85,SSW,206,2.0,11.0,13,0.00,,,0.00,,2013-04-15 16:43:00,
2013-04-15 09:52:00,54.0,4.0,29.85,SW,224,0.0,10.0,13,0.00,,,0.00,,2013-04-15 16:52:00,
2013-04-15 10:03:00,55.0,3.0,29.85,SSW,212,0.0,2.0,12,0.00,,,0.00,,2013-04-15 17:03:00,
2013-04-15 10:12:00,55.0,3.0,29.85,SSW,212,0.0,2.0,12,0.00,,,0.00,,2013-04-15 17:12:00,
2013-04-15 10:21:00,55.0,-1.0,29.85,SW,229,4.0,10.0,10,0.00,,,0.00,,2013-04-15 17:21:00,
2013-04-15 10:32:00,56.0,2.0,29.86,WSW,250,2.0,10.0,11,0.00,,,0.00,,2013-04-15 17:32:00,
2013-04-15 10:42:00,56.0,2.0,29.86,WSW,250,2.0,10.0,11,0.00,,,0.00,,2013-04-15 17:42:00,
2013-04-15 10:51:00,56.0,2.0,29.86,SSW,212,4.0,6.0,11,0.00,,,0.00,,2013-04-15 17:51:00,
2013-04-15 11:02:00,56.0,6.0,29.86,South,191,3.0,10.0,13,0.00,,,0.00,,2013-04-15 18:02:00,
2013-04-15 11:11:00,56.0,6.0,29.86,South,191,3.0,10.0,13,0.00,,,0.00,,2013-04-15 18:11:00,
2013-04-15 11:22:00,57.0,7.0,29.87,South,169,2.0,10.0,13,0.00,,,0.00,,2013-04-15 18:22:00,
2013-04-15 11:32:00,58.0,7.0,29.87,SSW,213,2.0,6.0,13,0.00,,,0.00,,2013-04-15 18:32:00,
2013-04-15 11:42:00,58.0,7.0,29.87,SSW,213,2.0,6.0,13,0.00,,,0.00,,2013-04-15 18:42:00,
2013-04-15 11:52:00,59.0,8.0,29.87,NNW,335,1.0,6.0,13,0.00,,,0.00,,2013-04-15 18:52:00,
2013-04-15 12:01:00,57.0,7.0,29.87,WNW,302,0.0,7.0,13,0.00,,,0.00,,2013-04-15 19:01:00,
2013-04-15 12:11:00,57.0,7.0,29.87,WNW,302,0.0,7.0,13,0.00,,,0.00,,2013-04-15 19:11:00,
2013-04-15 12:21:00,57.0,7.0,29.87,NNW,347,0.0,2.0,13,0.00,,,0.00,,2013-04-15 19:21:00,
2013-04-15 12:33:00,59.0,24.0,29.87,SW,220,2.0,7.0,26,0.00,,,0.00,,2013-04-15 19:33:00,
2013-04-15 12:43:00,59.0,24.0,29.87,SW,220,2.0,7.0,26,0.00,,,0.00,,2013-04-15 19:43:00,
2013-04-15 12:54:00,58.0,22.0,29.87,SW,229,3.0,10.0,25,0.00,,,0.00,,2013-04-15 19:54:00,
2013-04-15 13:02:00,58.0,23.0,29.87,SW,215,3.0,7.0,26,0.00,,,0.00,,2013-04-15 20:02:00,
2013-04-15 13:11:00,58.0,23.0,29.87,SW,215,3.0,7.0,26,0.00,,,0.00,,2013-04-15 20:11:00,
2013-04-15 13:21:00,58.0,23.0,29.87,NNE,20,2.0,6.0,26,0.00,,,0.00,,2013-04-15 20:21:00,
2013-04-15 13:32:00,53.0,19.0,29.87,NNW,340,3.0,5.0,26,0.00,,,0.00,,2013-04-15 20:32:00,
2013-04-15 13:42:00,53.0,19.0,29.87,NNW,340,3.0,5.0,26,0.00,,,0.00,,2013-04-15 20:42:00,
2013-04-15 13:52:00,49.0,34.0,29.87,NNW,330,0.0,10.0,56,0.00,,,0.00,,2013-04-15 20:52:00,
2013-04-15 14:02:00,49.0,34.0,29.87,West,281,4.0,9.0,56,0.00,,,0.00,,2013-04-15 21:02:00,
2013-04-15 14:22:00,51.0,33.0,29.87,WNW,289,3.0,10.0,50,0.00,,,0.00,,2013-04-15 21:22:00,
2013-04-15 14:32:00,53.0,35.0,29.87,SW,215,2.0,9.0,50,0.00,,,0.00,,2013-04-15 21:32:00,
2013-04-15 14:42:00,53.0,35.0,29.87,SW,215,2.0,9.0,50,0.00,,,0.00,,2013-04-15 21:42:00,
2013-04-15 14:52:00,54.0,36.0,29.87,ESE,103,2.0,5.0,50,0.00,,,0.00,,2013-04-15 21:52:00,
2013-04-15 15:02:00,53.0,30.0,29.86,SE,141,0.0,0.0,41,0.00,,,0.00,,2013-04-15 22:02:00,
2013-04-15 15:12:00,53.0,30.0,29.86,SE,141,0.0,0.0,41,0.00,,,0.00,,2013-04-15 22:12:00,
2013-04-15 15:22:00,53.0,31.0,29.86,SSW,209,4.0,12.0,42,0.00,,,0.00,,2013-04-15 22:22:00,
2013-04-15 15:32:00,54.0,22.0,29.85,WNW,302,5.0,13.0,29,0.00,,,0.00,,2013-04-15 22:32:00,
2013-04-15 15:42:00,54.0,22.0,29.85,WNW,302,5.0,13.0,29,0.00,,,0.00,,2013-04-15 22:42:00,
2013-04-15 15:52:00,54.0,27.0,29.85,SE,140,4.0,13.0,35,0.00,,,0.00,,2013-04-15 22:52:00,
2013-04-15 16:02:00,54.0,29.0,29.84,SW,215,3.0,9.0,38,0.00,,,0.00,,2013-04-15 23:02:00,
2013-04-15 16:11:00,54.0,29.0,29.84,SW,215,3.0,9.0,38,0.00,,,0.00,,2013-04-15 23:11:00,
2013-04-15 16:22:00,53.0,28.0,29.84,South,185,3.0,9.0,38,0.00,,,0.00,,2013-04-15 23:22:00,
2013-04-15 16:32:00,53.0,28.0,29.84,West,278,5.0,7.0,38,0.00,,,0.00,,2013-04-15 23:32:00,
2013-04-15 16:41:00,53.0,28.0,29.84,West,278,5.0,7.0,38,0.00,,,0.00,,2013-04-15 23:41:00,
2013-04-15 16:52:00,53.0,25.0,29.84,SW,236,4.0,11.0,33,0.00,,,0.00,,2013-04-15 23:52:00,
2013-04-15 17:01:00,53.0,25.0,29.84,West,264,5.0,10.0,33,0.00,,,0.00,,2013-04-16 00:01:00,
2013-04-15 17:11:00,53.0,25.0,29.84,West,264,5.0,10.0,33,0.00,,,0.00,,2013-04-16 00:11:00,
2013-04-15 17:21:00,53.0,25.0,29.83,SW,230,3.0,9.0,33,0.00,,,0.00,,2013-04-16 00:21:00,
2013-04-15 17:31:00,53.0,25.0,29.83,SW,222,5.0,9.0,33,0.00,,,0.00,,2013-04-16 00:31:00,
2013-04-15 17:41:00,53.0,25.0,29.83,SW,222,5.0,9.0,33,0.00,,,0.00,,2013-04-16 00:41:00,
2013-04-15 17:52:00,50.0,23.0,29.83,SW,223,0.0,11.0,35,0.00,,,0.00,,2013-04-16 00:52:00,
2013-04-15 18:02:00,50.0,23.0,29.83,SW,223,0.0,11.0,35,0.00,,,0.00,,2013-04-16 01:02:00,
2013-04-15 18:12:00,50.0,23.0,29.83,SW,223,0.0,11.0,35,0.00,,,0.00,,2013-04-16 01:12:00,
2013-04-15 18:31:00,45.0,19.0,29.84,NW,315,2.0,6.0,35,0.00,,,0.00,,2013-04-16 01:31:00,
2013-04-15 18:42:00,45.0,19.0,29.84,NW,315,2.0,6.0,35,0.00,,,0.00,,2013-04-16 01:42:00,
2013-04-15 18:52:00,43.0,31.0,29.84,SSW,210,0.0,0.0,62,0.00,,,0.00,,2013-04-16 01:52:00,
2013-04-15 19:01:00,41.0,31.0,29.84,South,191,0.0,6.0,66,0.00,,,0.00,,2013-04-16 02:01:00,
2013-04-15 19:11:00,41.0,31.0,29.84,South,191,0.0,6.0,66,0.00,,,0.00,,2013-04-16 02:11:00,
2013-04-15 19:21:00,40.0,30.0,29.84,SSW,209,0.0,2.0,66,0.00,,,0.00,,2013-04-16 02:21:00,
2013-04-15 19:31:00,39.0,29.0,29.84,SSW,212,3.0,7.0,66,0.00,,,0.00,,2013-04-16 02:31:00,
2013-04-15 19:42:00,39.0,29.0,29.84,SSW,212,3.0,7.0,66,0.00,,,0.00,,2013-04-16 02:42:00,
2013-04-15 19:52:00,39.0,29.0,29.83,SW,236,0.0,0.0,66,0.00,,,0.00,,2013-04-16 02:52:00,
2013-04-15 20:02:00,37.0,30.0,29.84,SSW,206,3.0,6.0,75,0.00,,,0.00,,2013-04-16 03:02:00,
2013-04-15 20:11:00,37.0,30.0,29.84,SSW,206,3.0,6.0,75,0.00,,,0.00,,2013-04-16 03:11:00,
2013-04-15 20:21:00,37.0,30.0,29.84,WNW,294,2.0,6.0,75,0.00,,,0.00,,2013-04-16 03:21:00,
2013-04-15 20:33:00,37.0,30.0,29.84,SW,223,5.0,10.0,75,0.00,,,0.00,,2013-04-16 03:33:00,
2013-04-15 20:43:00,37.0,30.0,29.84,SW,223,5.0,10.0,75,0.00,,,0.00,,2013-04-16 03:43:00,
2013-04-15 20:52:00,37.0,30.0,29.84,SW,219,4.0,11.0,75,0.00,,,0.00,,2013-04-16 03:52:00,
2013-04-15 21:02:00,36.0,29.0,29.84,SSW,209,6.0,11.0,75,0.00,,,0.00,,2013-04-16 04:02:00,
2013-04-15 21:12:00,36.0,29.0,29.84,SSW,209,6.0,11.0,75,0.00,,,0.00,,2013-04-16 04:12:00,
2013-04-15 21:23:00,36.0,29.0,29.84,SSW,210,4.0,11.0,75,0.00,,,0.00,,2013-04-16 04:23:00,
2013-04-15 21:32:00,35.0,28.0,29.84,South,191,2.0,6.0,75,0.00,,,0.00,,2013-04-16 04:32:00,
2013-04-15 21:42:00,35.0,28.0,29.84,South,191,2.0,6.0,75,0.00,,,0.00,,2013-04-16 04:42:00,
2013-04-15 21:52:00,35.0,28.0,29.84,NW,323,0.0,0.0,75,0.00,,,0.00,,2013-04-16 04:52:00,
2013-04-15 22:02:00,35.0,28.0,29.84,NNE,18,0.0,2.0,75,0.00,,,0.00,,2013-04-16 05:02:00,
2013-04-15 22:11:00,35.0,28.0,29.84,NNE,18,0.0,2.0,75,0.00,,,0.00,,2013-04-16 05:11:00,
2013-04-15 22:22:00,35.0,28.0,29.84,NNE,18,0.0,0.0,75,0.00,,,0.00,,2013-04-16 05:22:00,
2013-04-15 22:32:00,36.0,26.0,29.84,SW,227,0.0,0.0,68,0.00,,,0.00,,2013-04-16 05:32:00,
2013-04-15 22:42:00,36.0,26.0,29.84,SW,227,0.0,0.0,68,0.00,,,0.00,,2013-04-16 05:42:00,
2013-04-15 22:51:00,36.0,26.0,29.84,SW,227,0.0,0.0,68,0.00,,,0.00,,2013-04-16 05:51:00,
2013-04-15 23:02:00,36.0,26.0,29.84,WSW,246,3.0,9.0,68,0.00,,,0.00,,2013-04-16 06:02:00,
2013-04-15 23:11:00,36.0,26.0,29.84,WSW,246,3.0,9.0,68,0.00,,,0.00,,2013-04-16 06:11:00,
2013-04-15 23:21:00,37.0,22.0,29.84,WSW,253,3.0,3.0,55,0.00,,,0.00,,2013-04-16 06:21:00,
2013-04-15 23:32:00,37.0,27.0,29.84,NNW,340,2.0,6.0,67,0.00,,,0.00,,2013-04-16 06:32:00,
2013-04-15 23:41:00,37.0,27.0,29.84,NNW,340,2.0,6.0,67,0.00,,,0.00,,2013-04-16 06:41:00,
2013-04-15 23:51:00,35.0,25.0,29.83,NNW,336,0.0,10.0,67,0.00,,,0.00,,2013-04-16 06:51:00,